sensor_id;sensor_type;location;lat;lon;timestamp;P1;durP1;ratioP1;P2;durP2;ratioP2
64816;SDS011;69411;45.656;11.740;2023-06-26T00:00:00;9.57;;;4.82;;
64816;SDS011;69411;45.656;11.740;2023-06-26T00:02:26;5.75;;;4.30;;
64816;SDS011;69411;45.656;11.740;2023-06-26T00:04:52;6.95;;;4.28;;
64816;SDS011;69411;45.656;11.740;2023-06-26T00:07:21;7.50;;;3.95;;
64816;SDS011;69411;45.656;11.740;2023-06-26T00:09:47;7.93;;;4.35;;
64816;SDS011;69411;45.656;11.740;2023-06-26T00:12:13;6.68;;;4.35;;
64816;SDS011;69411;45.656;11.740;2023-06-26T00:14:39;7.57;;;4.20;;
64816;SDS011;69411;45.656;11.740;2023-06-26T00:17:05;5.88;;;4.18;;
64816;SDS011;69411;45.656;11.740;2023-06-26T00:19:31;8.48;;;5.05;;
64816;SDS011;69411;45.656;11.740;2023-06-26T00:21:56;9.82;;;5.95;;
64816;SDS011;69411;45.656;11.740;2023-06-26T00:24:22;9.13;;;5.90;;
64816;SDS011;69411;45.656;11.740;2023-06-26T00:26:49;7.32;;;5.00;;
64816;SDS011;69411;45.656;11.740;2023-06-26T00:29:15;8.23;;;4.40;;
64816;SDS011;69411;45.656;11.740;2023-06-26T00:31:41;6.60;;;4.40;;
64816;SDS011;69411;45.656;11.740;2023-06-26T00:34:07;8.55;;;4.50;;
64816;SDS011;69411;45.656;11.740;2023-06-26T00:36:33;8.75;;;5.78;;
64816;SDS011;69411;45.656;11.740;2023-06-26T00:39:02;9.60;;;4.78;;
64816;SDS011;69411;45.656;11.740;2023-06-26T00:41:29;6.05;;;4.15;;
64816;SDS011;69411;45.656;11.740;2023-06-26T00:43:55;8.15;;;5.07;;
64816;SDS011;69411;45.656;11.740;2023-06-26T00:46:21;8.73;;;5.03;;
64816;SDS011;69411;45.656;11.740;2023-06-26T00:48:47;8.98;;;4.47;;
64816;SDS011;69411;45.656;11.740;2023-06-26T00:51:14;8.27;;;4.72;;
64816;SDS011;69411;45.656;11.740;2023-06-26T00:53:41;6.68;;;4.45;;
64816;SDS011;69411;45.656;11.740;2023-06-26T00:56:08;8.73;;;4.18;;
64816;SDS011;69411;45.656;11.740;2023-06-26T00:58:34;7.97;;;4.30;;
64816;SDS011;69411;45.656;11.740;2023-06-26T01:01:00;6.82;;;3.92;;
64816;SDS011;69411;45.656;11.740;2023-06-26T01:03:26;8.60;;;4.10;;
64816;SDS011;69411;45.656;11.740;2023-06-26T01:05:52;7.22;;;3.95;;
64816;SDS011;69411;45.656;11.740;2023-06-26T01:08:21;6.55;;;4.25;;
64816;SDS011;69411;45.656;11.740;2023-06-26T01:10:48;7.88;;;4.40;;
64816;SDS011;69411;45.656;11.740;2023-06-26T01:13:15;8.43;;;4.40;;
64816;SDS011;69411;45.656;11.740;2023-06-26T01:15:42;8.18;;;4.57;;
64816;SDS011;69411;45.656;11.740;2023-06-26T01:18:08;8.05;;;4.47;;
64816;SDS011;69411;45.656;11.740;2023-06-26T01:20:35;5.93;;;4.00;;
64816;SDS011;69411;45.656;11.740;2023-06-26T01:31:00;8.18;;;5.20;;
64816;SDS011;69411;45.656;11.740;2023-06-26T01:33:28;7.32;;;4.70;;
64816;SDS011;69411;45.656;11.740;2023-06-26T01:35:54;11.35;;;5.82;;
64816;SDS011;69411;45.656;11.740;2023-06-26T01:38:20;7.72;;;4.68;;
64816;SDS011;69411;45.656;11.740;2023-06-26T01:40:51;10.45;;;5.47;;
64816;SDS011;69411;45.656;11.740;2023-06-26T01:43:24;8.95;;;4.90;;
64816;SDS011;69411;45.656;11.740;2023-06-26T01:46:58;8.77;;;5.07;;
64816;SDS011;69411;45.656;11.740;2023-06-26T01:49:10;8.95;;;5.03;;
64816;SDS011;69411;45.656;11.740;2023-06-26T01:52:07;8.40;;;5.50;;
64816;SDS011;69411;45.656;11.740;2023-06-26T01:54:54;7.68;;;4.30;;
64816;SDS011;69411;45.656;11.740;2023-06-26T01:57:39;9.20;;;4.32;;
64816;SDS011;69411;45.656;11.740;2023-06-26T02:00:06;7.30;;;4.75;;
64816;SDS011;69411;45.656;11.740;2023-06-26T02:02:54;11.38;;;4.95;;
64816;SDS011;69411;45.656;11.740;2023-06-26T02:05:20;11.10;;;5.15;;
64816;SDS011;69411;45.656;11.740;2023-06-26T02:07:48;12.32;;;5.25;;
64816;SDS011;69411;45.656;11.740;2023-06-26T02:10:14;9.23;;;4.97;;
64816;SDS011;69411;45.656;11.740;2023-06-26T02:12:40;7.60;;;4.38;;
64816;SDS011;69411;45.656;11.740;2023-06-26T02:15:06;6.97;;;4.30;;
64816;SDS011;69411;45.656;11.740;2023-06-26T02:17:33;8.90;;;4.85;;
64816;SDS011;69411;45.656;11.740;2023-06-26T02:19:59;8.13;;;4.57;;
64816;SDS011;69411;45.656;11.740;2023-06-26T02:22:25;9.95;;;4.60;;
64816;SDS011;69411;45.656;11.740;2023-06-26T02:24:53;7.57;;;4.50;;
64816;SDS011;69411;45.656;11.740;2023-06-26T02:27:19;7.22;;;4.38;;
64816;SDS011;69411;45.656;11.740;2023-06-26T02:29:45;7.97;;;4.60;;
64816;SDS011;69411;45.656;11.740;2023-06-26T02:32:12;10.70;;;4.50;;
64816;SDS011;69411;45.656;11.740;2023-06-26T02:34:37;6.15;;;4.05;;
64816;SDS011;69411;45.656;11.740;2023-06-26T02:37:03;5.45;;;3.55;;
64816;SDS011;69411;45.656;11.740;2023-06-26T02:39:49;5.72;;;3.92;;
64816;SDS011;69411;45.656;11.740;2023-06-26T02:42:15;7.35;;;3.88;;
64816;SDS011;69411;45.656;11.740;2023-06-26T02:44:42;6.25;;;3.65;;
64816;SDS011;69411;45.656;11.740;2023-06-26T02:47:08;7.15;;;3.83;;
64816;SDS011;69411;45.656;11.740;2023-06-26T02:49:34;4.97;;;3.40;;
64816;SDS011;69411;45.656;11.740;2023-06-26T02:52:00;5.70;;;3.50;;
64816;SDS011;69411;45.656;11.740;2023-06-26T02:54:26;5.88;;;3.38;;
64816;SDS011;69411;45.656;11.740;2023-06-26T02:56:52;6.57;;;3.47;;
64816;SDS011;69411;45.656;11.740;2023-06-26T02:59:18;7.53;;;3.40;;
64816;SDS011;69411;45.656;11.740;2023-06-26T03:01:44;6.20;;;3.80;;
64816;SDS011;69411;45.656;11.740;2023-06-26T03:04:10;4.25;;;3.45;;
64816;SDS011;69411;45.656;11.740;2023-06-26T03:06:36;10.00;;;3.60;;
64816;SDS011;69411;45.656;11.740;2023-06-26T03:09:02;6.18;;;3.50;;
64816;SDS011;69411;45.656;11.740;2023-06-26T03:11:28;6.88;;;3.85;;
64816;SDS011;69411;45.656;11.740;2023-06-26T03:13:54;6.88;;;4.05;;
64816;SDS011;69411;45.656;11.740;2023-06-26T03:16:20;7.30;;;3.63;;
64816;SDS011;69411;45.656;11.740;2023-06-26T03:18:47;6.00;;;4.13;;
64816;SDS011;69411;45.656;11.740;2023-06-26T03:21:13;8.90;;;5.03;;
64816;SDS011;69411;45.656;11.740;2023-06-26T03:23:39;8.02;;;4.18;;
64816;SDS011;69411;45.656;11.740;2023-06-26T03:26:05;11.30;;;4.82;;
64816;SDS011;69411;45.656;11.740;2023-06-26T03:28:30;10.30;;;5.47;;
64816;SDS011;69411;45.656;11.740;2023-06-26T03:30:58;10.13;;;5.00;;
64816;SDS011;69411;45.656;11.740;2023-06-26T03:33:25;8.15;;;4.93;;
64816;SDS011;69411;45.656;11.740;2023-06-26T03:35:51;8.23;;;4.72;;
64816;SDS011;69411;45.656;11.740;2023-06-26T03:38:17;9.10;;;5.43;;
64816;SDS011;69411;45.656;11.740;2023-06-26T03:40:43;7.38;;;4.70;;
64816;SDS011;69411;45.656;11.740;2023-06-26T03:43:09;8.02;;;4.60;;
64816;SDS011;69411;45.656;11.740;2023-06-26T03:45:35;6.90;;;4.43;;
64816;SDS011;69411;45.656;11.740;2023-06-26T03:48:01;8.45;;;4.63;;
64816;SDS011;69411;45.656;11.740;2023-06-26T03:50:27;7.75;;;4.25;;
64816;SDS011;69411;45.656;11.740;2023-06-26T03:52:53;8.30;;;4.20;;
64816;SDS011;69411;45.656;11.740;2023-06-26T03:55:19;8.63;;;4.70;;
64816;SDS011;69411;45.656;11.740;2023-06-26T03:57:47;6.57;;;4.05;;
64816;SDS011;69411;45.656;11.740;2023-06-26T04:00:14;5.88;;;4.00;;
64816;SDS011;69411;45.656;11.740;2023-06-26T04:02:40;6.65;;;4.00;;
64816;SDS011;69411;45.656;11.740;2023-06-26T04:05:06;6.70;;;4.13;;
64816;SDS011;69411;45.656;11.740;2023-06-26T04:07:32;6.93;;;4.15;;
64816;SDS011;69411;45.656;11.740;2023-06-26T04:09:59;6.05;;;4.07;;
64816;SDS011;69411;45.656;11.740;2023-06-26T04:12:25;7.13;;;3.75;;
64816;SDS011;69411;45.656;11.740;2023-06-26T04:14:51;6.38;;;4.30;;
64816;SDS011;69411;45.656;11.740;2023-06-26T04:17:17;6.50;;;4.22;;
64816;SDS011;69411;45.656;11.740;2023-06-26T04:19:43;6.28;;;4.00;;
64816;SDS011;69411;45.656;11.740;2023-06-26T04:22:09;6.68;;;4.20;;
64816;SDS011;69411;45.656;11.740;2023-06-26T04:24:37;7.75;;;4.00;;
64816;SDS011;69411;45.656;11.740;2023-06-26T04:27:03;6.72;;;3.88;;
64816;SDS011;69411;45.656;11.740;2023-06-26T04:29:30;7.63;;;4.65;;
64816;SDS011;69411;45.656;11.740;2023-06-26T04:31:56;6.68;;;4.30;;
64816;SDS011;69411;45.656;11.740;2023-06-26T04:34:26;9.23;;;4.57;;
64816;SDS011;69411;45.656;11.740;2023-06-26T04:36:53;5.70;;;4.28;;
64816;SDS011;69411;45.656;11.740;2023-06-26T04:39:20;7.68;;;4.72;;
64816;SDS011;69411;45.656;11.740;2023-06-26T04:41:45;6.30;;;4.40;;
64816;SDS011;69411;45.656;11.740;2023-06-26T04:44:12;7.65;;;4.35;;
64816;SDS011;69411;45.656;11.740;2023-06-26T04:46:38;6.90;;;4.55;;
64816;SDS011;69411;45.656;11.740;2023-06-26T04:49:07;7.75;;;5.05;;
64816;SDS011;69411;45.656;11.740;2023-06-26T04:51:34;7.00;;;4.80;;
64816;SDS011;69411;45.656;11.740;2023-06-26T04:54:07;9.95;;;4.78;;
64816;SDS011;69411;45.656;11.740;2023-06-26T04:56:33;6.90;;;4.03;;
64816;SDS011;69411;45.656;11.740;2023-06-26T04:58:59;8.05;;;4.75;;
64816;SDS011;69411;45.656;11.740;2023-06-26T05:01:25;8.05;;;5.25;;
64816;SDS011;69411;45.656;11.740;2023-06-26T05:03:54;8.52;;;4.45;;
64816;SDS011;69411;45.656;11.740;2023-06-26T05:06:21;7.00;;;4.65;;
64816;SDS011;69411;45.656;11.740;2023-06-26T05:08:48;6.35;;;4.32;;
64816;SDS011;69411;45.656;11.740;2023-06-26T05:11:13;5.50;;;4.25;;
64816;SDS011;69411;45.656;11.740;2023-06-26T05:13:40;6.68;;;4.30;;
64816;SDS011;69411;45.656;11.740;2023-06-26T05:16:07;8.48;;;5.15;;
64816;SDS011;69411;45.656;11.740;2023-06-26T05:18:36;8.48;;;4.43;;
64816;SDS011;69411;45.656;11.740;2023-06-26T05:21:03;7.68;;;4.40;;
64816;SDS011;69411;45.656;11.740;2023-06-26T05:23:30;9.38;;;4.10;;
64816;SDS011;69411;45.656;11.740;2023-06-26T05:25:57;9.98;;;4.60;;
64816;SDS011;69411;45.656;11.740;2023-06-26T05:28:24;10.85;;;4.53;;
64816;SDS011;69411;45.656;11.740;2023-06-26T05:30:52;7.93;;;4.07;;
64816;SDS011;69411;45.656;11.740;2023-06-26T05:33:19;9.65;;;4.93;;
64816;SDS011;69411;45.656;11.740;2023-06-26T05:35:49;7.93;;;4.25;;
64816;SDS011;69411;45.656;11.740;2023-06-26T05:38:17;8.15;;;4.25;;
64816;SDS011;69411;45.656;11.740;2023-06-26T05:40:43;7.57;;;4.03;;
64816;SDS011;69411;45.656;11.740;2023-06-26T05:43:21;7.05;;;4.20;;
64816;SDS011;69411;45.656;11.740;2023-06-26T05:45:48;6.18;;;3.80;;
64816;SDS011;69411;45.656;11.740;2023-06-26T05:48:14;6.20;;;4.05;;
64816;SDS011;69411;45.656;11.740;2023-06-26T05:50:41;4.95;;;3.75;;
64816;SDS011;69411;45.656;11.740;2023-06-26T05:53:08;5.82;;;3.83;;
64816;SDS011;69411;45.656;11.740;2023-06-26T05:55:34;5.80;;;3.72;;
64816;SDS011;69411;45.656;11.740;2023-06-26T05:58:01;5.90;;;4.10;;
64816;SDS011;69411;45.656;11.740;2023-06-26T06:00:28;5.30;;;3.95;;
64816;SDS011;69411;45.656;11.740;2023-06-26T06:02:56;7.60;;;4.10;;
64816;SDS011;69411;45.656;11.740;2023-06-26T06:05:22;7.20;;;3.90;;
64816;SDS011;69411;45.656;11.740;2023-06-26T06:07:49;7.72;;;4.00;;
64816;SDS011;69411;45.656;11.740;2023-06-26T06:10:15;5.72;;;3.83;;
64816;SDS011;69411;45.656;11.740;2023-06-26T06:12:41;7.30;;;4.00;;
64816;SDS011;69411;45.656;11.740;2023-06-26T06:15:07;7.50;;;4.65;;
64816;SDS011;69411;45.656;11.740;2023-06-26T06:17:33;6.45;;;3.90;;
64816;SDS011;69411;45.656;11.740;2023-06-26T06:19:59;6.20;;;4.78;;
64816;SDS011;69411;45.656;11.740;2023-06-26T06:22:26;7.10;;;4.70;;
64816;SDS011;69411;45.656;11.740;2023-06-26T06:24:54;5.47;;;4.70;;
64816;SDS011;69411;45.656;11.740;2023-06-26T06:27:20;7.88;;;5.22;;
64816;SDS011;69411;45.656;11.740;2023-06-26T06:29:46;8.88;;;6.45;;
64816;SDS011;69411;45.656;11.740;2023-06-26T06:32:12;8.32;;;5.93;;
64816;SDS011;69411;45.656;11.740;2023-06-26T06:34:40;9.02;;;6.07;;
64816;SDS011;69411;45.656;11.740;2023-06-26T06:37:06;7.78;;;6.10;;
64816;SDS011;69411;45.656;11.740;2023-06-26T06:39:34;8.32;;;6.28;;
64816;SDS011;69411;45.656;11.740;2023-06-26T06:42:00;9.15;;;6.22;;
64816;SDS011;69411;45.656;11.740;2023-06-26T06:44:28;11.23;;;6.07;;
64816;SDS011;69411;45.656;11.740;2023-06-26T06:46:55;9.13;;;6.55;;
64816;SDS011;69411;45.656;11.740;2023-06-26T06:49:21;10.35;;;6.82;;
64816;SDS011;69411;45.656;11.740;2023-06-26T06:51:49;10.23;;;6.40;;
64816;SDS011;69411;45.656;11.740;2023-06-26T06:54:16;8.15;;;6.07;;
64816;SDS011;69411;45.656;11.740;2023-06-26T06:56:44;10.07;;;6.20;;
64816;SDS011;69411;45.656;11.740;2023-06-26T06:59:10;9.82;;;6.45;;
64816;SDS011;69411;45.656;11.740;2023-06-26T07:01:36;8.60;;;6.28;;
64816;SDS011;69411;45.656;11.740;2023-06-26T07:04:02;9.00;;;5.95;;
64816;SDS011;69411;45.656;11.740;2023-06-26T07:06:29;10.65;;;6.75;;
64816;SDS011;69411;45.656;11.740;2023-06-26T07:08:55;9.43;;;6.30;;
64816;SDS011;69411;45.656;11.740;2023-06-26T07:11:21;10.00;;;7.22;;
64816;SDS011;69411;45.656;11.740;2023-06-26T07:13:47;11.18;;;6.65;;
64816;SDS011;69411;45.656;11.740;2023-06-26T07:16:15;10.30;;;5.82;;
64816;SDS011;69411;45.656;11.740;2023-06-26T07:18:42;8.32;;;5.88;;
64816;SDS011;69411;45.656;11.740;2023-06-26T07:21:08;9.35;;;5.90;;
64816;SDS011;69411;45.656;11.740;2023-06-26T07:23:34;8.65;;;5.88;;
64816;SDS011;69411;45.656;11.740;2023-06-26T07:26:04;9.63;;;6.55;;
64816;SDS011;69411;45.656;11.740;2023-06-26T07:28:30;8.98;;;6.30;;
64816;SDS011;69411;45.656;11.740;2023-06-26T07:30:56;9.85;;;6.22;;
64816;SDS011;69411;45.656;11.740;2023-06-26T07:33:24;9.40;;;6.93;;
64816;SDS011;69411;45.656;11.740;2023-06-26T07:35:50;10.05;;;6.20;;
64816;SDS011;69411;45.656;11.740;2023-06-26T07:38:17;8.65;;;6.35;;
64816;SDS011;69411;45.656;11.740;2023-06-26T07:40:43;10.13;;;6.97;;
64816;SDS011;69411;45.656;11.740;2023-06-26T07:43:14;10.70;;;6.60;;
64816;SDS011;69411;45.656;11.740;2023-06-26T07:45:40;9.80;;;5.93;;
64816;SDS011;69411;45.656;11.740;2023-06-26T07:48:06;10.20;;;6.55;;
64816;SDS011;69411;45.656;11.740;2023-06-26T07:50:34;8.10;;;5.93;;
64816;SDS011;69411;45.656;11.740;2023-06-26T07:53:00;10.20;;;7.22;;
64816;SDS011;69411;45.656;11.740;2023-06-26T07:55:26;8.90;;;6.03;;
64816;SDS011;69411;45.656;11.740;2023-06-26T07:57:53;8.55;;;5.90;;
64816;SDS011;69411;45.656;11.740;2023-06-26T08:00:22;9.63;;;6.50;;
64816;SDS011;69411;45.656;11.740;2023-06-26T08:02:48;10.20;;;6.32;;
64816;SDS011;69411;45.656;11.740;2023-06-26T08:05:14;10.23;;;7.50;;
64816;SDS011;69411;45.656;11.740;2023-06-26T08:07:41;8.80;;;6.47;;
64816;SDS011;69411;45.656;11.740;2023-06-26T08:10:08;9.43;;;6.05;;
64816;SDS011;69411;45.656;11.740;2023-06-26T08:12:36;8.60;;;6.35;;
64816;SDS011;69411;45.656;11.740;2023-06-26T08:15:07;11.95;;;6.82;;
64816;SDS011;69411;45.656;11.740;2023-06-26T08:17:34;7.93;;;5.97;;
64816;SDS011;69411;45.656;11.740;2023-06-26T08:20:01;10.55;;;6.22;;
64816;SDS011;69411;45.656;11.740;2023-06-26T08:22:29;9.02;;;5.95;;
64816;SDS011;69411;45.656;11.740;2023-06-26T08:24:56;9.02;;;5.93;;
64816;SDS011;69411;45.656;11.740;2023-06-26T08:27:22;11.07;;;6.60;;
64816;SDS011;69411;45.656;11.740;2023-06-26T08:29:50;9.57;;;6.38;;
64816;SDS011;69411;45.656;11.740;2023-06-26T08:32:18;8.35;;;5.88;;
64816;SDS011;69411;45.656;11.740;2023-06-26T08:34:44;9.98;;;5.60;;
64816;SDS011;69411;45.656;11.740;2023-06-26T08:37:11;8.10;;;5.47;;
64816;SDS011;69411;45.656;11.740;2023-06-26T08:39:37;9.20;;;6.07;;
64816;SDS011;69411;45.656;11.740;2023-06-26T08:42:05;8.93;;;5.90;;
64816;SDS011;69411;45.656;11.740;2023-06-26T08:44:33;9.85;;;5.68;;
64816;SDS011;69411;45.656;11.740;2023-06-26T08:47:00;8.93;;;5.78;;
64816;SDS011;69411;45.656;11.740;2023-06-26T08:52:02;8.52;;;5.38;;
64816;SDS011;69411;45.656;11.740;2023-06-26T08:54:42;10.85;;;5.97;;
64816;SDS011;69411;45.656;11.740;2023-06-26T08:57:14;8.48;;;5.68;;
64816;SDS011;69411;45.656;11.740;2023-06-26T08:59:43;7.38;;;5.57;;
64816;SDS011;69411;45.656;11.740;2023-06-26T09:02:13;10.52;;;5.20;;
64816;SDS011;69411;45.656;11.740;2023-06-26T09:04:39;9.27;;;6.10;;
64816;SDS011;69411;45.656;11.740;2023-06-26T09:07:06;9.68;;;5.45;;
64816;SDS011;69411;45.656;11.740;2023-06-26T09:09:35;10.25;;;6.43;;
64816;SDS011;69411;45.656;11.740;2023-06-26T09:12:02;8.27;;;5.22;;
64816;SDS011;69411;45.656;11.740;2023-06-26T09:14:29;8.40;;;5.28;;
64816;SDS011;69411;45.656;11.740;2023-06-26T09:16:55;8.35;;;5.25;;
64816;SDS011;69411;45.656;11.740;2023-06-26T09:19:22;8.45;;;5.68;;
64816;SDS011;69411;45.656;11.740;2023-06-26T09:21:50;9.02;;;5.65;;
64816;SDS011;69411;45.656;11.740;2023-06-26T09:24:17;10.48;;;5.95;;
64816;SDS011;69411;45.656;11.740;2023-06-26T09:26:43;8.63;;;5.75;;
64816;SDS011;69411;45.656;11.740;2023-06-26T09:29:10;9.35;;;5.88;;
64816;SDS011;69411;45.656;11.740;2023-06-26T09:31:39;9.23;;;5.55;;
64816;SDS011;69411;45.656;11.740;2023-06-26T09:34:05;7.47;;;5.20;;
64816;SDS011;69411;45.656;11.740;2023-06-26T09:36:32;7.60;;;5.70;;
64816;SDS011;69411;45.656;11.740;2023-06-26T09:39:00;10.40;;;6.30;;
64816;SDS011;69411;45.656;11.740;2023-06-26T09:41:36;9.70;;;6.00;;
64816;SDS011;69411;45.656;11.740;2023-06-26T09:44:11;10.93;;;5.90;;
64816;SDS011;69411;45.656;11.740;2023-06-26T09:46:44;8.68;;;5.95;;
64816;SDS011;69411;45.656;11.740;2023-06-26T09:49:12;9.63;;;6.22;;
64816;SDS011;69411;45.656;11.740;2023-06-26T09:51:40;9.52;;;5.90;;
64816;SDS011;69411;45.656;11.740;2023-06-26T09:54:07;7.47;;;5.47;;
64816;SDS011;69411;45.656;11.740;2023-06-26T09:56:37;10.18;;;5.57;;
64816;SDS011;69411;45.656;11.740;2023-06-26T09:59:04;8.07;;;5.18;;
64816;SDS011;69411;45.656;11.740;2023-06-26T10:01:31;8.95;;;5.80;;
64816;SDS011;69411;45.656;11.740;2023-06-26T10:03:58;10.05;;;5.93;;
64816;SDS011;69411;45.656;11.740;2023-06-26T10:06:27;10.05;;;5.85;;
64816;SDS011;69411;45.656;11.740;2023-06-26T10:09:06;9.52;;;5.35;;
64816;SDS011;69411;45.656;11.740;2023-06-26T10:11:54;7.07;;;5.25;;
64816;SDS011;69411;45.656;11.740;2023-06-26T10:14:35;7.97;;;5.07;;
64816;SDS011;69411;45.656;11.740;2023-06-26T10:17:07;7.15;;;5.18;;
64816;SDS011;69411;45.656;11.740;2023-06-26T10:19:35;8.18;;;5.07;;
64816;SDS011;69411;45.656;11.740;2023-06-26T10:22:05;7.22;;;5.03;;
64816;SDS011;69411;45.656;11.740;2023-06-26T10:24:33;9.10;;;5.10;;
64816;SDS011;69411;45.656;11.740;2023-06-26T10:27:07;6.53;;;4.45;;
64816;SDS011;69411;45.656;11.740;2023-06-26T10:29:34;8.93;;;5.13;;
64816;SDS011;69411;45.656;11.740;2023-06-26T10:32:02;6.72;;;4.57;;
64816;SDS011;69411;45.656;11.740;2023-06-26T10:34:29;9.05;;;5.57;;
64816;SDS011;69411;45.656;11.740;2023-06-26T10:36:59;7.40;;;5.22;;
64816;SDS011;69411;45.656;11.740;2023-06-26T10:39:46;9.20;;;5.30;;
64816;SDS011;69411;45.656;11.740;2023-06-26T10:42:17;9.57;;;4.90;;
64816;SDS011;69411;45.656;11.740;2023-06-26T10:44:45;8.65;;;5.05;;
64816;SDS011;69411;45.656;11.740;2023-06-26T10:47:28;6.35;;;4.30;;
64816;SDS011;69411;45.656;11.740;2023-06-26T10:55:59;7.25;;;4.90;;
64816;SDS011;69411;45.656;11.740;2023-06-26T11:04:35;7.57;;;5.05;;
64816;SDS011;69411;45.656;11.740;2023-06-26T11:06:31;8.32;;;4.95;;
64816;SDS011;69411;45.656;11.740;2023-06-26T11:09:01;6.97;;;5.15;;
64816;SDS011;69411;45.656;11.740;2023-06-26T11:14:20;7.25;;;5.40;;
64816;SDS011;69411;45.656;11.740;2023-06-26T11:16:47;8.82;;;6.00;;
64816;SDS011;69411;45.656;11.740;2023-06-26T11:19:16;6.43;;;4.90;;
64816;SDS011;69411;45.656;11.740;2023-06-26T11:21:44;8.57;;;5.45;;
64816;SDS011;69411;45.656;11.740;2023-06-26T11:24:11;7.43;;;5.35;;
64816;SDS011;69411;45.656;11.740;2023-06-26T11:26:38;7.90;;;5.32;;
64816;SDS011;69411;45.656;11.740;2023-06-26T11:29:05;9.02;;;5.82;;
64816;SDS011;69411;45.656;11.740;2023-06-26T11:31:32;8.48;;;5.40;;
64816;SDS011;69411;45.656;11.740;2023-06-26T11:34:03;9.48;;;5.47;;
64816;SDS011;69411;45.656;11.740;2023-06-26T11:36:40;6.88;;;5.05;;
64816;SDS011;69411;45.656;11.740;2023-06-26T11:39:08;7.18;;;5.10;;
64816;SDS011;69411;45.656;11.740;2023-06-26T11:41:38;8.00;;;5.30;;
64816;SDS011;69411;45.656;11.740;2023-06-26T11:44:10;8.27;;;5.65;;
64816;SDS011;69411;45.656;11.740;2023-06-26T11:46:36;8.82;;;5.40;;
64816;SDS011;69411;45.656;11.740;2023-06-26T11:49:04;8.15;;;5.35;;
64816;SDS011;69411;45.656;11.740;2023-06-26T11:51:33;9.05;;;5.65;;
64816;SDS011;69411;45.656;11.740;2023-06-26T11:54:02;7.72;;;5.30;;
64816;SDS011;69411;45.656;11.740;2023-06-26T11:56:29;9.32;;;6.13;;
64816;SDS011;69411;45.656;11.740;2023-06-26T12:01:32;6.82;;;4.78;;
64816;SDS011;69411;45.656;11.740;2023-06-26T12:04:01;7.43;;;5.18;;
64816;SDS011;69411;45.656;11.740;2023-06-26T12:06:29;6.22;;;4.93;;
64816;SDS011;69411;45.656;11.740;2023-06-26T12:08:58;7.50;;;5.57;;
64816;SDS011;69411;45.656;11.740;2023-06-26T12:11:25;10.65;;;6.07;;
64816;SDS011;69411;45.656;11.740;2023-06-26T12:13:53;9.60;;;6.40;;
64816;SDS011;69411;45.656;11.740;2023-06-26T12:16:20;9.00;;;5.95;;
64816;SDS011;69411;45.656;11.740;2023-06-26T12:18:46;9.13;;;5.18;;
64816;SDS011;69411;45.656;11.740;2023-06-26T12:24:00;7.93;;;5.80;;
64816;SDS011;69411;45.656;11.740;2023-06-26T12:26:27;8.48;;;5.85;;
64816;SDS011;69411;45.656;11.740;2023-06-26T12:29:07;8.90;;;5.68;;
64816;SDS011;69411;45.656;11.740;2023-06-26T12:31:39;7.95;;;5.80;;
64816;SDS011;69411;45.656;11.740;2023-06-26T12:34:10;8.27;;;5.80;;
64816;SDS011;69411;45.656;11.740;2023-06-26T12:37:00;8.15;;;5.93;;
64816;SDS011;69411;45.656;11.740;2023-06-26T12:39:38;7.63;;;5.13;;
64816;SDS011;69411;45.656;11.740;2023-06-26T12:42:25;9.85;;;5.47;;
64816;SDS011;69411;45.656;11.740;2023-06-26T12:44:54;7.85;;;5.43;;
64816;SDS011;69411;45.656;11.740;2023-06-26T12:47:26;11.38;;;7.38;;
64816;SDS011;69411;45.656;11.740;2023-06-26T12:49:54;8.27;;;5.93;;
64816;SDS011;69411;45.656;11.740;2023-06-26T12:52:34;8.82;;;5.80;;
64816;SDS011;69411;45.656;11.740;2023-06-26T12:55:02;8.77;;;5.50;;
64816;SDS011;69411;45.656;11.740;2023-06-26T12:57:32;9.57;;;6.57;;
64816;SDS011;69411;45.656;11.740;2023-06-26T13:00:00;9.73;;;5.95;;
64816;SDS011;69411;45.656;11.740;2023-06-26T13:02:28;7.45;;;5.40;;
64816;SDS011;69411;45.656;11.740;2023-06-26T13:04:55;12.25;;;6.57;;
64816;SDS011;69411;45.656;11.740;2023-06-26T13:07:21;8.38;;;6.10;;
64816;SDS011;69411;45.656;11.740;2023-06-26T13:09:50;8.00;;;5.32;;
64816;SDS011;69411;45.656;11.740;2023-06-26T13:12:19;8.63;;;5.95;;
64816;SDS011;69411;45.656;11.740;2023-06-26T13:14:45;10.15;;;5.97;;
64816;SDS011;69411;45.656;11.740;2023-06-26T13:17:11;8.32;;;5.30;;
64816;SDS011;69411;45.656;11.740;2023-06-26T13:19:40;8.48;;;5.55;;
64816;SDS011;69411;45.656;11.740;2023-06-26T13:22:06;8.80;;;5.60;;
64816;SDS011;69411;45.656;11.740;2023-06-26T13:24:34;9.43;;;5.63;;
64816;SDS011;69411;45.656;11.740;2023-06-26T13:27:02;9.60;;;5.60;;
64816;SDS011;69411;45.656;11.740;2023-06-26T13:29:33;6.72;;;5.00;;
64816;SDS011;69411;45.656;11.740;2023-06-26T13:31:59;6.85;;;5.13;;
64816;SDS011;69411;45.656;11.740;2023-06-26T13:34:27;8.25;;;5.60;;
64816;SDS011;69411;45.656;11.740;2023-06-26T13:36:53;10.65;;;6.80;;
64816;SDS011;69411;45.656;11.740;2023-06-26T13:39:19;7.47;;;5.07;;
64816;SDS011;69411;45.656;11.740;2023-06-26T13:41:45;8.25;;;5.45;;
64816;SDS011;69411;45.656;11.740;2023-06-26T13:44:11;9.65;;;5.13;;
64816;SDS011;69411;45.656;11.740;2023-06-26T13:46:37;8.38;;;6.47;;
64816;SDS011;69411;45.656;11.740;2023-06-26T13:49:03;8.13;;;5.80;;
64816;SDS011;69411;45.656;11.740;2023-06-26T13:51:31;7.82;;;5.38;;
64816;SDS011;69411;45.656;11.740;2023-06-26T13:53:57;9.15;;;5.35;;
64816;SDS011;69411;45.656;11.740;2023-06-26T13:56:25;8.52;;;5.75;;
64816;SDS011;69411;45.656;11.740;2023-06-26T13:58:53;8.20;;;5.65;;
64816;SDS011;69411;45.656;11.740;2023-06-26T14:01:20;8.35;;;5.97;;
64816;SDS011;69411;45.656;11.740;2023-06-26T14:03:46;8.25;;;5.40;;
64816;SDS011;69411;45.656;11.740;2023-06-26T14:06:12;7.75;;;5.65;;
64816;SDS011;69411;45.656;11.740;2023-06-26T14:08:37;7.00;;;4.90;;
64816;SDS011;69411;45.656;11.740;2023-06-26T14:11:04;7.72;;;5.55;;
64816;SDS011;69411;45.656;11.740;2023-06-26T14:13:30;7.28;;;5.35;;
64816;SDS011;69411;45.656;11.740;2023-06-26T14:15:58;7.55;;;5.15;;
64816;SDS011;69411;45.656;11.740;2023-06-26T14:18:26;9.23;;;5.78;;
64816;SDS011;69411;45.656;11.740;2023-06-26T14:20:53;8.88;;;5.82;;
64816;SDS011;69411;45.656;11.740;2023-06-26T14:23:19;8.10;;;5.38;;
64816;SDS011;69411;45.656;11.740;2023-06-26T14:25:45;7.50;;;4.90;;
64816;SDS011;69411;45.656;11.740;2023-06-26T14:28:11;7.70;;;5.10;;
64816;SDS011;69411;45.656;11.740;2023-06-26T14:30:37;9.38;;;5.40;;
64816;SDS011;69411;45.656;11.740;2023-06-26T14:33:03;8.65;;;5.65;;
64816;SDS011;69411;45.656;11.740;2023-06-26T14:35:29;7.75;;;5.38;;
64816;SDS011;69411;45.656;11.740;2023-06-26T14:37:55;9.65;;;5.40;;
64816;SDS011;69411;45.656;11.740;2023-06-26T14:40:20;7.20;;;5.00;;
64816;SDS011;69411;45.656;11.740;2023-06-26T14:42:46;9.00;;;5.47;;
64816;SDS011;69411;45.656;11.740;2023-06-26T14:45:12;8.23;;;5.63;;
64816;SDS011;69411;45.656;11.740;2023-06-26T14:47:38;7.68;;;5.50;;
64816;SDS011;69411;45.656;11.740;2023-06-26T14:50:07;9.07;;;5.55;;
64816;SDS011;69411;45.656;11.740;2023-06-26T14:52:34;8.50;;;5.78;;
64816;SDS011;69411;45.656;11.740;2023-06-26T14:55:00;8.57;;;5.07;;
64816;SDS011;69411;45.656;11.740;2023-06-26T14:57:26;7.80;;;5.15;;
64816;SDS011;69411;45.656;11.740;2023-06-26T14:59:52;11.48;;;5.40;;
64816;SDS011;69411;45.656;11.740;2023-06-26T15:02:18;7.53;;;5.25;;
64816;SDS011;69411;45.656;11.740;2023-06-26T15:04:45;11.20;;;5.50;;
64816;SDS011;69411;45.656;11.740;2023-06-26T15:07:11;9.02;;;5.00;;